MiSS Ellie — WDJ2256 — position and weather

sailwx.info

Track history (hours):
 
Tides and Currents Weather Stations Pressure Air Temp Water Temp Dewpoint Dewpoint Depression Visibility Wind Speed Wind Dir Waves Ship Positions

MiSS Ellie

Owner: Magnolia Marine Transportation Company, Vicksburg, MS. More information available from US FCC via Universal Licensing System and Coast Guard Vessel Documentation Center.

Last reported at 2018-Jun-22 07:41 UTC. Time now 2018-Jun-22 15:24 UTC.
Position N 29°45' W 095°06'.

Length 33 m.

Type: Towing. MMSI: 367756630.

Date/timePositionNaut miles runAvg speedWind from/ knotsBaromVisibWave heightAir tempDewpointWater temp
2018-Jun-22 07:41N 29°45' W 095°06'0 0.0
2018-Jun-22 07:26N 29°45' W 095°06'0 0.0
2018-Jun-22 06:04N 29°45' W 095°06'0 0.0
2018-Jun-22 05:58N 29°45' W 095°06'0 0.0
2018-Jun-22 04:38N 29°45' W 095°06'0 0.0
2018-Jun-22 04:25N 29°45' W 095°06'2 0.1
2018-Jun-21 06:47N 29°47' W 095°04'2 6.0
2018-Jun-21 06:27N 29°45' W 095°06'4 0.1
2018-Jun-20 01:45N 29°44' W 095°01'2 6.4
2018-Jun-20 01:30N 29°42' W 095°01'23 6.7
2018-Jun-19 22:04N 29°22' W 094°47'1 7.1
2018-Jun-19 21:51N 29°23' W 094°46'7 5.9
2018-Jun-19 20:36N 29°28' W 094°39'2 6.0
2018-Jun-19 20:21N 29°28' W 094°38'5 5.9
2018-Jun-19 19:33N 29°30' W 094°33'0 5.9
2018-Jun-19 19:30N 29°30' W 094°32'3 5.8
2018-Jun-19 19:00N 29°31' W 094°29'3 5.7
2018-Jun-19 18:29N 29°34' W 094°27'1 2.7
2018-Jun-19 18:00N 29°34' W 094°26'0 0.1
2018-Jun-19 17:30N 29°34' W 094°26'2 3.9
2018-Jun-19 17:00N 29°36' W 094°25'2 4.9
2018-Jun-19 16:30N 29°36' W 094°22'3 6.1
2018-Jun-19 16:00N 29°38' W 094°19'3 6.1
2018-Jun-19 15:31N 29°39' W 094°16'3 6.1
2018-Jun-19 15:00N 29°41' W 094°13'3 6.0
2018-Jun-19 14:30N 29°41' W 094°09'3 6.2
2018-Jun-19 14:00N 29°43' W 094°07'3 6.2
2018-Jun-19 13:30N 29°45' W 094°04'3 6.2
2018-Jun-19 13:01N 29°47' W 094°01'3 6.2
2018-Jun-19 12:30N 29°49' W 093°58'3 6.7
2018-Jun-19 12:00N 29°52' W 093°56'4 8.7
2018-Jun-19 11:30N 29°55' W 093°53'4 7.5
2018-Jun-19 11:00N 29°58' W 093°50'4 7.0
2018-Jun-19 10:30N 29°60' W 093°47'4 8.1
2018-Jun-19 10:00N 30°03' W 093°44'3 4.7
2018-Jun-19 09:28N 30°04' W 093°41'2 3.6
2018-Jun-19 08:56N 30°04' W 093°39'3 5.7
2018-Jun-19 08:27N 30°04' W 093°36'2 5.1
2018-Jun-19 08:00N 30°04' W 093°33'2 4.7
2018-Jun-19 07:30N 30°04' W 093°30'2 4.7
2018-Jun-19 07:00N 30°04' W 093°27'2 4.8
2018-Jun-19 06:31N 30°04' W 093°25'2 3.9
2018-Jun-19 06:01N 30°04' W 093°22'2 3.4
2018-Jun-19 05:31N 30°04' W 093°21'2 3.0
2018-Jun-19 05:00N 30°05' W 093°20'2 3.2
2018-Jun-19 04:30N 30°05' W 093°18'1 1.2
2018-Jun-19 04:01N 30°05' W 093°17'1 1.9
2018-Jun-19 03:30N 30°04' W 093°16'0 0.3
2018-Jun-19 03:00N 30°04' W 093°16'0 0.1
2018-Jun-19 02:30N 30°04' W 093°16'0 0.0
2018-Jun-19 02:00N 30°04' W 093°16'0 0.1
2018-Jun-19 01:31N 30°04' W 093°16'0 0.0
2018-Jun-19 01:00N 30°04' W 093°16'0 0.0
2018-Jun-19 00:31N 30°04' W 093°16'0 0.0
2018-Jun-19 00:00N 30°04' W 093°16'0 0.0
2018-Jun-18 23:31N 30°04' W 093°16'0 0.2
2018-Jun-18 23:01N 30°04' W 093°16'0 0.0
2018-Jun-18 22:31N 30°04' W 093°16'0 0.0
2018-Jun-18 22:01N 30°04' W 093°16'0 0.0
2018-Jun-18 21:30N 30°04' W 093°16'0 0.0
2018-Jun-18 21:01N 30°04' W 093°16'0 0.1
2018-Jun-18 20:31N 30°04' W 093°16'0 0.0
2018-Jun-18 20:00N 30°04' W 093°16'0 0.0
2018-Jun-18 19:31N 30°04' W 093°16'0 0.0
2018-Jun-18 19:00N 30°04' W 093°16'0 0.0
2018-Jun-18 18:29N 30°04' W 093°16'0 0.0
2018-Jun-18 18:00N 30°04' W 093°16'0 0.0
2018-Jun-18 17:31N 30°04' W 093°16'0 0.0
2018-Jun-18 17:00N 30°04' W 093°16'0 0.0
2018-Jun-18 16:31N 30°04' W 093°16'0 0.1
2018-Jun-18 16:00N 30°04' W 093°16'0 0.1
2018-Jun-18 15:31N 30°04' W 093°16'0 0.0
2018-Jun-18 15:00N 30°04' W 093°16'0 0.0
2018-Jun-18 14:30N 30°04' W 093°16'0 0.0
2018-Jun-18 14:00N 30°04' W 093°16'0 0.0
2018-Jun-18 13:31N 30°04' W 093°16'0 0.0
2018-Jun-18 13:00N 30°04' W 093°16'0 0.1
2018-Jun-18 12:30N 30°04' W 093°16'0 0.0
2018-Jun-18 12:00N 30°04' W 093°16'0 0.8
2018-Jun-18 11:30N 30°04' W 093°16'2 4.4
2018-Jun-18 11:00N 30°02' W 093°15'2 4.6
2018-Jun-18 10:30N 29°60' W 093°13'2 5.0
2018-Jun-18 10:00N 29°58' W 093°11'1 2.7
2018-Jun-18 09:30N 29°57' W 093°10'2 4.4
2018-Jun-18 09:00N 29°56' W 093°08'2 4.7
2018-Jun-18 08:31N 29°56' W 093°05'2 4.6
2018-Jun-18 08:00N 29°56' W 093°03'35 4.2
2018-Jun-17 23:40N 29°53' W 092°23'2 4.3
2018-Jun-17 23:15N 29°51' W 092°22'1 4.2
2018-Jun-17 23:00N 29°51' W 092°21'1 1.5
2018-Jun-17 22:30N 29°50' W 092°20'1 1.3
2018-Jun-17 22:00N 29°50' W 092°19'0 0.2
2018-Jun-17 21:30N 29°50' W 092°19'0 0.0
2018-Jun-17 21:01N 29°50' W 092°19'0 0.0
2018-Jun-17 20:30N 29°50' W 092°19'0 0.0
2018-Jun-17 20:01N 29°50' W 092°19'0 0.0
2018-Jun-17 19:30N 29°50' W 092°19'0 0.0
2018-Jun-17 19:00N 29°50' W 092°19'5 5.9
2018-Jun-17 18:12N 29°53' W 092°24'1 6.7
2018-Jun-17 17:59N 29°53' W 092°25'34 7.0
2018-Jun-17 13:06N 29°56' W 093°04'1 6.8
2018-Jun-17 12:55N 29°56' W 093°06'3 7.1
2018-Jun-17 12:29N 29°56' W 093°09'3 6.9
2018-Jun-17 12:00N 29°59' W 093°12'2 3.7
2018-Jun-17 11:30N 29°60' W 093°13'2 3.5
2018-Jun-17 11:00N 30°02' W 093°14'2 3.4
2018-Jun-17 10:31N 30°03' W 093°16'3 6.0
2018-Jun-17 10:01N 30°05' W 093°17'0 0.9
2018-Jun-17 09:31N 30°05' W 093°18'1 2.0
2018-Jun-17 09:01N 30°06' W 093°19'0 0.0
2018-Jun-17 08:31N 30°06' W 093°19'0 0.0
2018-Jun-17 07:59N 30°06' W 093°19'0 0.0
2018-Jun-17 07:30N 30°06' W 093°19'0 0.0
2018-Jun-17 07:01N 30°06' W 093°19'0 0.0
2018-Jun-17 06:30N 30°06' W 093°19'0 0.0
2018-Jun-17 06:00N 30°06' W 093°19'0 0.0
2018-Jun-17 05:29N 30°06' W 093°19'0 0.0
2018-Jun-17 05:00N 30°06' W 093°19'0 0.0
2018-Jun-17 04:30N 30°06' W 093°19'0 0.0
2018-Jun-17 04:00N 30°06' W 093°19'0 0.0
2018-Jun-17 03:29N 30°06' W 093°19'0 0.0
2018-Jun-17 02:59N 30°06' W 093°19'0 0.0
2018-Jun-17 02:30N 30°06' W 093°19'0 0.0
2018-Jun-17 02:01N 30°06' W 093°19'0 0.0
2018-Jun-17 01:30N 30°06' W 093°19'0 0.0
2018-Jun-17 01:01N 30°06' W 093°19'0 0.9
2018-Jun-17 00:30N 30°06' W 093°19'0 0.0
2018-Jun-16 23:59N 30°06' W 093°19'0 0.1
2018-Jun-16 23:31N 30°06' W 093°19'0 0.1
2018-Jun-16 23:00N 30°06' W 093°19'0 0.0
2018-Jun-16 22:29N 30°06' W 093°19'0 0.0
2018-Jun-16 22:00N 30°06' W 093°19'0 0.0
2018-Jun-16 21:30N 30°06' W 093°19'0 0.1
2018-Jun-16 21:00N 30°06' W 093°19'0 0.0
2018-Jun-16 20:29N 30°06' W 093°19'0 0.0
2018-Jun-16 19:59N 30°06' W 093°19'0 0.1
2018-Jun-16 19:29N 30°06' W 093°19'0 0.0
2018-Jun-16 19:01N 30°06' W 093°19'0 0.0
2018-Jun-16 18:30N 30°06' W 093°19'0 0.0
2018-Jun-16 18:01N 30°06' W 093°19'0 0.0
2018-Jun-16 17:30N 30°06' W 093°19'0 0.0
2018-Jun-16 17:01N 30°06' W 093°19'0 0.0
2018-Jun-16 16:31N 30°06' W 093°19'0 0.0
2018-Jun-16 16:01N 30°06' W 093°19'0 0.0
2018-Jun-16 15:30N 30°06' W 093°19'0 0.0
2018-Jun-16 15:00N 30°06' W 093°19'0 0.1
2018-Jun-16 14:31N 30°06' W 093°19'0 0.0
2018-Jun-16 14:01N 30°06' W 093°19'0 0.0
2018-Jun-16 13:30N 30°06' W 093°19'0 0.9
2018-Jun-16 13:01N 30°06' W 093°19'3 5.3
2018-Jun-16 12:30N 30°04' W 093°21'3 5.5
2018-Jun-16 12:00N 30°04' W 093°25'3 6.9
2018-Jun-16 11:31N 30°04' W 093°29'4 7.1
2018-Jun-16 11:00N 30°04' W 093°33'4 7.1
2018-Jun-16 10:30N 30°04' W 093°37'3 6.8
2018-Jun-16 10:00N 30°04' W 093°41'0 1.0
2018-Jun-16 09:31N 30°04' W 093°41'0 0.5
2018-Jun-16 09:00N 30°03' W 093°42'2 3.3
2018-Jun-16 08:30N 30°03' W 093°43'1 2.2
2018-Jun-16 08:00N 30°02' W 093°44'3 6.8
2018-Jun-16 07:30N 29°60' W 093°47'4 7.6
2018-Jun-16 07:00N 29°58' W 093°51'3 5.9
2018-Jun-16 06:30N 29°56' W 093°53'3 6.5
2018-Jun-16 06:01N 29°53' W 093°55'3 6.0
2018-Jun-16 05:30N 29°51' W 093°57'3 5.7
2018-Jun-16 05:01N 29°49' W 093°59'4 7.3
2018-Jun-16 04:30N 29°46' W 094°02'4 7.4
2018-Jun-16 04:00N 29°44' W 094°06'3 6.8
2018-Jun-16 03:30N 29°42' W 094°09'3 6.1
2018-Jun-16 03:00N 29°41' W 094°12'4 6.8
2018-Jun-16 02:29N 29°39' W 094°16'9 6.4
2018-Jun-16 01:05N 29°35' W 094°25'13 5.5
2018-Jun-15 22:44N 29°28' W 094°38'2 7.3
2018-Jun-15 22:24N 29°28' W 094°40'3 7.3
2018-Jun-15 22:00N 29°26' W 094°43'4 7.4
2018-Jun-15 21:30N 29°23' W 094°46'3 5.4
2018-Jun-15 20:57N 29°24' W 094°49'9 7.6
2018-Jun-15 19:45N 29°32' W 094°54'3 6.7
2018-Jun-15 19:22N 29°34' W 094°56'5 6.7
2018-Jun-15 18:40N 29°39' W 094°58'2 7.1
2018-Jun-15 18:23N 29°41' W 094°59'  
2018-Jun-13 05:03N 29°47' W 095°04'0 0.1
2018-Jun-13 05:00N 29°47' W 095°04'2 2.6
2018-Jun-13 04:20N 29°46' W 095°04'2 6.3
2018-Jun-13 04:00N 29°44' W 095°03'3 5.8
2018-Jun-13 03:28N 29°42' W 095°00'4 8.4
2018-Jun-13 02:59N 29°39' W 094°58'27 5.0
2018-Jun-12 21:33N 29°34' W 094°27'1 6.4
2018-Jun-12 21:26N 29°34' W 094°27'3 4.8
2018-Jun-12 20:54N 29°36' W 094°25'2 4.1
2018-Jun-12 20:27N 29°36' W 094°22'0 0.0
2018-Jun-12 19:53N 29°36' W 094°22'2 4.2
2018-Jun-12 19:30N 29°37' W 094°21'3 5.5
2018-Jun-12 19:00N 29°38' W 094°18'3 5.7
2018-Jun-12 18:30N 29°39' W 094°15'3 5.8
2018-Jun-12 18:00N 29°41' W 094°12'2 4.4
2018-Jun-12 17:30N 29°41' W 094°10'3 5.5
2018-Jun-12 17:00N 29°43' W 094°07'3 5.7
2018-Jun-12 16:31N 29°45' W 094°05'3 5.7
2018-Jun-12 16:01N 29°47' W 094°02'3 5.8
2018-Jun-12 15:30N 29°49' W 093°60'3 6.3
2018-Jun-12 15:00N 29°51' W 093°57'3 5.3
2018-Jun-12 14:30N 29°53' W 093°55'3 6.9
2018-Jun-12 14:00N 29°56' W 093°53'3 6.8
2018-Jun-12 13:31N 29°58' W 093°51'4 8.3
2018-Jun-12 13:00N 30°00' W 093°46'4 7.7
2018-Jun-12 12:30N 30°03' W 093°43'4 6.7
2018-Jun-12 11:54N 30°04' W 093°39'2 6.2
2018-Jun-12 11:30N 30°04' W 093°36'3 5.7
2018-Jun-12 11:00N 30°04' W 093°33'3 5.9
2018-Jun-12 10:31N 30°04' W 093°29'3 6.1
2018-Jun-12 10:00N 30°04' W 093°26'2 4.6
2018-Jun-12 09:30N 30°04' W 093°23'2 3.9
2018-Jun-12 09:00N 30°04' W 093°21'2 3.4
2018-Jun-12 08:30N 30°05' W 093°20'1 2.9
2018-Jun-12 08:00N 30°06' W 093°18'  
Track history (hours):
 
Tides and Currents Weather Stations Pressure Air Temp Water Temp Dewpoint Dewpoint Depression Visibility Wind Speed Wind Dir Waves Ship Positions

MiSS Ellie

Owner: Magnolia Marine Transportation Company, Vicksburg, MS. More information available from US FCC via Universal Licensing System and Coast Guard Vessel Documentation Center.

Last reported at 2018-Jun-22 07:41 UTC. Time now 2018-Jun-22 15:24 UTC.
Position N 29°45' W 095°06'.

Length 33 m.

Type: Towing. MMSI: 367756630.

Date/timePositionNaut miles runAvg speedWind from/ knotsBaromVisibWave heightAir tempDewpointWater temp
2018-Jun-22 07:41N 29°45' W 095°06'0 0.0
2018-Jun-22 07:26N 29°45' W 095°06'0 0.0
2018-Jun-22 06:04N 29°45' W 095°06'0 0.0
2018-Jun-22 05:58N 29°45' W 095°06'0 0.0
2018-Jun-22 04:38N 29°45' W 095°06'0 0.0
2018-Jun-22 04:25N 29°45' W 095°06'2 0.1
2018-Jun-21 06:47N 29°47' W 095°04'2 6.0
2018-Jun-21 06:27N 29°45' W 095°06'4 0.1
2018-Jun-20 01:45N 29°44' W 095°01'2 6.4
2018-Jun-20 01:30N 29°42' W 095°01'23 6.7
2018-Jun-19 22:04N 29°22' W 094°47'1 7.1
2018-Jun-19 21:51N 29°23' W 094°46'7 5.9
2018-Jun-19 20:36N 29°28' W 094°39'2 6.0
2018-Jun-19 20:21N 29°28' W 094°38'5 5.9
2018-Jun-19 19:33N 29°30' W 094°33'0 5.9
2018-Jun-19 19:30N 29°30' W 094°32'3 5.8
2018-Jun-19 19:00N 29°31' W 094°29'3 5.7
2018-Jun-19 18:29N 29°34' W 094°27'1 2.7
2018-Jun-19 18:00N 29°34' W 094°26'0 0.1
2018-Jun-19 17:30N 29°34' W 094°26'2 3.9
2018-Jun-19 17:00N 29°36' W 094°25'2 4.9
2018-Jun-19 16:30N 29°36' W 094°22'3 6.1
2018-Jun-19 16:00N 29°38' W 094°19'3 6.1
2018-Jun-19 15:31N 29°39' W 094°16'3 6.1
2018-Jun-19 15:00N 29°41' W 094°13'3 6.0
2018-Jun-19 14:30N 29°41' W 094°09'3 6.2
2018-Jun-19 14:00N 29°43' W 094°07'3 6.2
2018-Jun-19 13:30N 29°45' W 094°04'3 6.2
2018-Jun-19 13:01N 29°47' W 094°01'3 6.2
2018-Jun-19 12:30N 29°49' W 093°58'3 6.7
2018-Jun-19 12:00N 29°52' W 093°56'4 8.7
2018-Jun-19 11:30N 29°55' W 093°53'4 7.5
2018-Jun-19 11:00N 29°58' W 093°50'4 7.0
2018-Jun-19 10:30N 29°60' W 093°47'4 8.1
2018-Jun-19 10:00N 30°03' W 093°44'3 4.7
2018-Jun-19 09:28N 30°04' W 093°41'2 3.6
2018-Jun-19 08:56N 30°04' W 093°39'3 5.7
2018-Jun-19 08:27N 30°04' W 093°36'2 5.1
2018-Jun-19 08:00N 30°04' W 093°33'2 4.7
2018-Jun-19 07:30N 30°04' W 093°30'2 4.7
2018-Jun-19 07:00N 30°04' W 093°27'2 4.8
2018-Jun-19 06:31N 30°04' W 093°25'2 3.9
2018-Jun-19 06:01N 30°04' W 093°22'2 3.4
2018-Jun-19 05:31N 30°04' W 093°21'2 3.0
2018-Jun-19 05:00N 30°05' W 093°20'2 3.2
2018-Jun-19 04:30N 30°05' W 093°18'1 1.2
2018-Jun-19 04:01N 30°05' W 093°17'1 1.9
2018-Jun-19 03:30N 30°04' W 093°16'0 0.3
2018-Jun-19 03:00N 30°04' W 093°16'0 0.1
2018-Jun-19 02:30N 30°04' W 093°16'0 0.0
2018-Jun-19 02:00N 30°04' W 093°16'0 0.1
2018-Jun-19 01:31N 30°04' W 093°16'0 0.0
2018-Jun-19 01:00N 30°04' W 093°16'0 0.0
2018-Jun-19 00:31N 30°04' W 093°16'0 0.0
2018-Jun-19 00:00N 30°04' W 093°16'0 0.0
2018-Jun-18 23:31N 30°04' W 093°16'0 0.2
2018-Jun-18 23:01N 30°04' W 093°16'0 0.0
2018-Jun-18 22:31N 30°04' W 093°16'0 0.0
2018-Jun-18 22:01N 30°04' W 093°16'0 0.0
2018-Jun-18 21:30N 30°04' W 093°16'0 0.0
2018-Jun-18 21:01N 30°04' W 093°16'0 0.1
2018-Jun-18 20:31N 30°04' W 093°16'0 0.0
2018-Jun-18 20:00N 30°04' W 093°16'0 0.0
2018-Jun-18 19:31N 30°04' W 093°16'0 0.0
2018-Jun-18 19:00N 30°04' W 093°16'0 0.0
2018-Jun-18 18:29N 30°04' W 093°16'0 0.0
2018-Jun-18 18:00N 30°04' W 093°16'0 0.0
2018-Jun-18 17:31N 30°04' W 093°16'0 0.0
2018-Jun-18 17:00N 30°04' W 093°16'0 0.0
2018-Jun-18 16:31N 30°04' W 093°16'0 0.1
2018-Jun-18 16:00N 30°04' W 093°16'0 0.1
2018-Jun-18 15:31N 30°04' W 093°16'0 0.0
2018-Jun-18 15:00N 30°04' W 093°16'0 0.0
2018-Jun-18 14:30N 30°04' W 093°16'0 0.0
2018-Jun-18 14:00N 30°04' W 093°16'0 0.0
2018-Jun-18 13:31N 30°04' W 093°16'0 0.0
2018-Jun-18 13:00N 30°04' W 093°16'0 0.1
2018-Jun-18 12:30N 30°04' W 093°16'0 0.0
2018-Jun-18 12:00N 30°04' W 093°16'0 0.8
2018-Jun-18 11:30N 30°04' W 093°16'2 4.4
2018-Jun-18 11:00N 30°02' W 093°15'2 4.6
2018-Jun-18 10:30N 29°60' W 093°13'2 5.0
2018-Jun-18 10:00N 29°58' W 093°11'1 2.7
2018-Jun-18 09:30N 29°57' W 093°10'2 4.4
2018-Jun-18 09:00N 29°56' W 093°08'2 4.7
2018-Jun-18 08:31N 29°56' W 093°05'2 4.6
2018-Jun-18 08:00N 29°56' W 093°03'35 4.2
2018-Jun-17 23:40N 29°53' W 092°23'2 4.3
2018-Jun-17 23:15N 29°51' W 092°22'1 4.2
2018-Jun-17 23:00N 29°51' W 092°21'1 1.5
2018-Jun-17 22:30N 29°50' W 092°20'1 1.3
2018-Jun-17 22:00N 29°50' W 092°19'0 0.2
2018-Jun-17 21:30N 29°50' W 092°19'0 0.0
2018-Jun-17 21:01N 29°50' W 092°19'0 0.0
2018-Jun-17 20:30N 29°50' W 092°19'0 0.0
2018-Jun-17 20:01N 29°50' W 092°19'0 0.0
2018-Jun-17 19:30N 29°50' W 092°19'0 0.0
2018-Jun-17 19:00N 29°50' W 092°19'5 5.9
2018-Jun-17 18:12N 29°53' W 092°24'1 6.7
2018-Jun-17 17:59N 29°53' W 092°25'34 7.0
2018-Jun-17 13:06N 29°56' W 093°04'1 6.8
2018-Jun-17 12:55N 29°56' W 093°06'3 7.1
2018-Jun-17 12:29N 29°56' W 093°09'3 6.9
2018-Jun-17 12:00N 29°59' W 093°12'2 3.7
2018-Jun-17 11:30N 29°60' W 093°13'2 3.5
2018-Jun-17 11:00N 30°02' W 093°14'2 3.4
2018-Jun-17 10:31N 30°03' W 093°16'3 6.0
2018-Jun-17 10:01N 30°05' W 093°17'0 0.9
2018-Jun-17 09:31N 30°05' W 093°18'1 2.0
2018-Jun-17 09:01N 30°06' W 093°19'0 0.0
2018-Jun-17 08:31N 30°06' W 093°19'0 0.0
2018-Jun-17 07:59N 30°06' W 093°19'0 0.0
2018-Jun-17 07:30N 30°06' W 093°19'0 0.0
2018-Jun-17 07:01N 30°06' W 093°19'0 0.0
2018-Jun-17 06:30N 30°06' W 093°19'0 0.0
2018-Jun-17 06:00N 30°06' W 093°19'0 0.0
2018-Jun-17 05:29N 30°06' W 093°19'0 0.0
2018-Jun-17 05:00N 30°06' W 093°19'0 0.0
2018-Jun-17 04:30N 30°06' W 093°19'0 0.0
2018-Jun-17 04:00N 30°06' W 093°19'0 0.0
2018-Jun-17 03:29N 30°06' W 093°19'0 0.0
2018-Jun-17 02:59N 30°06' W 093°19'0 0.0
2018-Jun-17 02:30N 30°06' W 093°19'0 0.0
2018-Jun-17 02:01N 30°06' W 093°19'0 0.0
2018-Jun-17 01:30N 30°06' W 093°19'0 0.0
2018-Jun-17 01:01N 30°06' W 093°19'0 0.9
2018-Jun-17 00:30N 30°06' W 093°19'0 0.0
2018-Jun-16 23:59N 30°06' W 093°19'0 0.1
2018-Jun-16 23:31N 30°06' W 093°19'0 0.1
2018-Jun-16 23:00N 30°06' W 093°19'0 0.0
2018-Jun-16 22:29N 30°06' W 093°19'0 0.0
2018-Jun-16 22:00N 30°06' W 093°19'0 0.0
2018-Jun-16 21:30N 30°06' W 093°19'0 0.1
2018-Jun-16 21:00N 30°06' W 093°19'0 0.0
2018-Jun-16 20:29N 30°06' W 093°19'0 0.0
2018-Jun-16 19:59N 30°06' W 093°19'0 0.1
2018-Jun-16 19:29N 30°06' W 093°19'0 0.0
2018-Jun-16 19:01N 30°06' W 093°19'0 0.0
2018-Jun-16 18:30N 30°06' W 093°19'0 0.0
2018-Jun-16 18:01N 30°06' W 093°19'0 0.0
2018-Jun-16 17:30N 30°06' W 093°19'0 0.0
2018-Jun-16 17:01N 30°06' W 093°19'0 0.0
2018-Jun-16 16:31N 30°06' W 093°19'0 0.0
2018-Jun-16 16:01N 30°06' W 093°19'0 0.0
2018-Jun-16 15:30N 30°06' W 093°19'0 0.0
2018-Jun-16 15:00N 30°06' W 093°19'0 0.1
2018-Jun-16 14:31N 30°06' W 093°19'0 0.0
2018-Jun-16 14:01N 30°06' W 093°19'0 0.0
2018-Jun-16 13:30N 30°06' W 093°19'0 0.9
2018-Jun-16 13:01N 30°06' W 093°19'3 5.3
2018-Jun-16 12:30N 30°04' W 093°21'3 5.5
2018-Jun-16 12:00N 30°04' W 093°25'3 6.9
2018-Jun-16 11:31N 30°04' W 093°29'4 7.1
2018-Jun-16 11:00N 30°04' W 093°33'4 7.1
2018-Jun-16 10:30N 30°04' W 093°37'3 6.8
2018-Jun-16 10:00N 30°04' W 093°41'0 1.0
2018-Jun-16 09:31N 30°04' W 093°41'0 0.5
2018-Jun-16 09:00N 30°03' W 093°42'2 3.3
2018-Jun-16 08:30N 30°03' W 093°43'1 2.2
2018-Jun-16 08:00N 30°02' W 093°44'3 6.8
2018-Jun-16 07:30N 29°60' W 093°47'4 7.6
2018-Jun-16 07:00N 29°58' W 093°51'3 5.9
2018-Jun-16 06:30N 29°56' W 093°53'3 6.5
2018-Jun-16 06:01N 29°53' W 093°55'3 6.0
2018-Jun-16 05:30N 29°51' W 093°57'3 5.7
2018-Jun-16 05:01N 29°49' W 093°59'4 7.3
2018-Jun-16 04:30N 29°46' W 094°02'4 7.4
2018-Jun-16 04:00N 29°44' W 094°06'3 6.8
2018-Jun-16 03:30N 29°42' W 094°09'3 6.1
2018-Jun-16 03:00N 29°41' W 094°12'4 6.8
2018-Jun-16 02:29N 29°39' W 094°16'9 6.4
2018-Jun-16 01:05N 29°35' W 094°25'13 5.5
2018-Jun-15 22:44N 29°28' W 094°38'2 7.3
2018-Jun-15 22:24N 29°28' W 094°40'3 7.3
2018-Jun-15 22:00N 29°26' W 094°43'4 7.4
2018-Jun-15 21:30N 29°23' W 094°46'3 5.4
2018-Jun-15 20:57N 29°24' W 094°49'9 7.6
2018-Jun-15 19:45N 29°32' W 094°54'3 6.7
2018-Jun-15 19:22N 29°34' W 094°56'5 6.7
2018-Jun-15 18:40N 29°39' W 094°58'2 7.1
2018-Jun-15 18:23N 29°41' W 094°59'  
2018-Jun-13 05:03N 29°47' W 095°04'0 0.1
2018-Jun-13 05:00N 29°47' W 095°04'2 2.6
2018-Jun-13 04:20N 29°46' W 095°04'2 6.3
2018-Jun-13 04:00N 29°44' W 095°03'3 5.8
2018-Jun-13 03:28N 29°42' W 095°00'4 8.4
2018-Jun-13 02:59N 29°39' W 094°58'27 5.0
2018-Jun-12 21:33N 29°34' W 094°27'1 6.4
2018-Jun-12 21:26N 29°34' W 094°27'3 4.8
2018-Jun-12 20:54N 29°36' W 094°25'2 4.1
2018-Jun-12 20:27N 29°36' W 094°22'0 0.0
2018-Jun-12 19:53N 29°36' W 094°22'2 4.2
2018-Jun-12 19:30N 29°37' W 094°21'3 5.5
2018-Jun-12 19:00N 29°38' W 094°18'3 5.7
2018-Jun-12 18:30N 29°39' W 094°15'3 5.8
2018-Jun-12 18:00N 29°41' W 094°12'2 4.4
2018-Jun-12 17:30N 29°41' W 094°10'3 5.5
2018-Jun-12 17:00N 29°43' W 094°07'3 5.7
2018-Jun-12 16:31N 29°45' W 094°05'3 5.7
2018-Jun-12 16:01N 29°47' W 094°02'3 5.8
2018-Jun-12 15:30N 29°49' W 093°60'3 6.3
2018-Jun-12 15:00N 29°51' W 093°57'3 5.3
2018-Jun-12 14:30N 29°53' W 093°55'3 6.9
2018-Jun-12 14:00N 29°56' W 093°53'3 6.8
2018-Jun-12 13:31N 29°58' W 093°51'4 8.3
2018-Jun-12 13:00N 30°00' W 093°46'4 7.7
2018-Jun-12 12:30N 30°03' W 093°43'4 6.7
2018-Jun-12 11:54N 30°04' W 093°39'2 6.2
2018-Jun-12 11:30N 30°04' W 093°36'3 5.7
2018-Jun-12 11:00N 30°04' W 093°33'3 5.9
2018-Jun-12 10:31N 30°04' W 093°29'3 6.1
2018-Jun-12 10:00N 30°04' W 093°26'2 4.6
2018-Jun-12 09:30N 30°04' W 093°23'2 3.9
2018-Jun-12 09:00N 30°04' W 093°21'2 3.4
2018-Jun-12 08:30N 30°05' W 093°20'1 2.9
2018-Jun-12 08:00N 30°06' W 093°18'  

Dump ship's entire track history